sensor_id;sensor_type;location;lat;lon;timestamp;pressure;altitude;pressure_sealevel;temperature;humidity
11347;BME280;5728;42.722;23.258;2024-03-02T00:01:30;94190.09;;;8.57;98.09
11347;BME280;5728;42.722;23.258;2024-03-02T00:03:57;94178.03;;;8.57;98.89
11347;BME280;5728;42.722;23.258;2024-03-02T00:06:24;94187.34;;;8.66;98.24
11347;BME280;5728;42.722;23.258;2024-03-02T00:08:51;94197.63;;;8.69;97.88
11347;BME280;5728;42.722;23.258;2024-03-02T00:11:18;94193.47;;;8.60;97.94
11347;BME280;5728;42.722;23.258;2024-03-02T00:13:45;94191.03;;;8.53;98.08
11347;BME280;5728;42.722;23.258;2024-03-02T00:16:14;94191.97;;;8.47;99.13
11347;BME280;5728;42.722;23.258;2024-03-02T00:18:41;94186.72;;;8.52;99.44
11347;BME280;5728;42.722;23.258;2024-03-02T00:21:09;94205.66;;;8.52;98.18
11347;BME280;5728;42.722;23.258;2024-03-02T00:23:37;94195.38;;;8.49;98.57
11347;BME280;5728;42.722;23.258;2024-03-02T00:26:05;94191.03;;;8.53;97.56
11347;BME280;5728;42.722;23.258;2024-03-02T00:28:35;94185.94;;;8.47;97.16
11347;BME280;5728;42.722;23.258;2024-03-02T00:31:04;94180.56;;;8.59;96.40
11347;BME280;5728;42.722;23.258;2024-03-02T00:33:34;94178.06;;;8.56;95.59
11347;BME280;5728;42.722;23.258;2024-03-02T00:36:02;94178.06;;;8.56;95.22
11347;BME280;5728;42.722;23.258;2024-03-02T00:38:29;94180.41;;;8.68;94.42
11347;BME280;5728;42.722;23.258;2024-03-02T00:40:58;94178.28;;;8.91;93.03
11347;BME280;5728;42.722;23.258;2024-03-02T00:43:46;94177.41;;;8.90;92.70
11347;BME280;5728;42.722;23.258;2024-03-02T00:46:18;94171.56;;;8.81;92.61
11347;BME280;5728;42.722;23.258;2024-03-02T00:48:52;94183.59;;;8.82;91.83
11347;BME280;5728;42.722;23.258;2024-03-02T00:51:21;94183.72;;;8.76;92.99
11347;BME280;5728;42.722;23.258;2024-03-02T00:53:48;94184.41;;;8.84;93.00
11347;BME280;5728;42.722;23.258;2024-03-02T00:56:16;94181.41;;;9.08;92.45
11347;BME280;5728;42.722;23.258;2024-03-02T00:58:43;94188.66;;;8.88;92.41
11347;BME280;5728;42.722;23.258;2024-03-02T01:01:10;94179.88;;;8.96;92.31
11347;BME280;5728;42.722;23.258;2024-03-02T01:03:37;94177.84;;;9.12;93.30
11347;BME280;5728;42.722;23.258;2024-03-02T01:06:05;94186.38;;;9.17;93.70
11347;BME280;5728;42.722;23.258;2024-03-02T01:08:34;94196.31;;;9.38;93.26
11347;BME280;5728;42.722;23.258;2024-03-02T01:11:01;94190.94;;;9.47;92.60
11347;BME280;5728;42.722;23.258;2024-03-02T01:13:28;94187.22;;;9.60;92.63
11347;BME280;5728;42.722;23.258;2024-03-02T01:15:55;94182.19;;;9.53;93.36
11347;BME280;5728;42.722;23.258;2024-03-02T01:18:22;94168.56;;;9.46;93.19
11347;BME280;5728;42.722;23.258;2024-03-02T01:20:50;94166.94;;;9.39;93.99
11347;BME280;5728;42.722;23.258;2024-03-02T01:23:19;94163.75;;;9.27;94.45
11347;BME280;5728;42.722;23.258;2024-03-02T01:25:47;94161.25;;;9.24;94.27
11347;BME280;5728;42.722;23.258;2024-03-02T01:28:14;94158.31;;;8.97;94.95
11347;BME280;5728;42.722;23.258;2024-03-02T01:30:41;94150.66;;;8.93;95.22
11347;BME280;5728;42.722;23.258;2024-03-02T01:33:08;94159.59;;;9.21;95.39
11347;BME280;5728;42.722;23.258;2024-03-02T01:35:35;94150.31;;;9.11;95.81
11347;BME280;5728;42.722;23.258;2024-03-02T01:38:03;94153.41;;;9.28;96.10
11347;BME280;5728;42.722;23.258;2024-03-02T01:40:33;94151.63;;;9.30;96.31
11347;BME280;5728;42.722;23.258;2024-03-02T01:43:00;94156.84;;;9.27;95.83
11347;BME280;5728;42.722;23.258;2024-03-02T01:45:28;94156.91;;;9.24;95.23
11347;BME280;5728;42.722;23.258;2024-03-02T01:47:55;94156.59;;;9.41;96.26
11347;BME280;5728;42.722;23.258;2024-03-02T01:50:25;94153.09;;;9.43;94.64
11347;BME280;5728;42.722;23.258;2024-03-02T01:52:54;94153.13;;;9.40;94.61
11347;BME280;5728;42.722;23.258;2024-03-02T01:55:21;94149.59;;;9.44;96.25
11347;BME280;5728;42.722;23.258;2024-03-02T01:57:50;94152.91;;;9.51;95.96
11347;BME280;5728;42.722;23.258;2024-03-02T02:00:18;94144.59;;;9.75;94.58
11347;BME280;5728;42.722;23.258;2024-03-02T02:02:45;94144.81;;;9.66;93.82
11347;BME280;5728;42.722;23.258;2024-03-02T02:05:12;94157.19;;;9.53;94.01
11347;BME280;5728;42.722;23.258;2024-03-02T02:07:40;94149.25;;;9.59;94.50
11347;BME280;5728;42.722;23.258;2024-03-02T02:10:07;94151.19;;;9.51;95.32
11347;BME280;5728;42.722;23.258;2024-03-02T02:12:34;94148.50;;;9.56;95.26
11347;BME280;5728;42.722;23.258;2024-03-02T02:15:03;94144.19;;;9.55;96.29
11347;BME280;5728;42.722;23.258;2024-03-02T02:17:31;94143.91;;;9.69;94.48
11347;BME280;5728;42.722;23.258;2024-03-02T02:19:58;94153.50;;;9.63;94.13
11347;BME280;5728;42.722;23.258;2024-03-02T02:22:26;94152.38;;;9.35;95.02
11347;BME280;5728;42.722;23.258;2024-03-02T02:24:53;94152.22;;;9.43;95.25
11347;BME280;5728;42.722;23.258;2024-03-02T02:27:20;94151.19;;;9.51;96.49
11347;BME280;5728;42.722;23.258;2024-03-02T02:29:47;94147.53;;;9.61;94.80
11347;BME280;5728;42.722;23.258;2024-03-02T02:32:14;94141.25;;;9.72;94.85
11347;BME280;5728;42.722;23.258;2024-03-02T02:34:41;94147.69;;;9.52;94.42
11347;BME280;5728;42.722;23.258;2024-03-02T02:37:08;94149.59;;;9.44;96.19
11347;BME280;5728;42.722;23.258;2024-03-02T02:39:36;94143.16;;;9.62;95.96
11347;BME280;5728;42.722;23.258;2024-03-02T02:42:04;94140.56;;;9.63;95.96
11347;BME280;5728;42.722;23.258;2024-03-02T02:44:31;94148.34;;;9.63;96.76
11347;BME280;5728;42.722;23.258;2024-03-02T02:46:58;94145.00;;;9.58;96.71
11347;BME280;5728;42.722;23.258;2024-03-02T02:49:24;94150.97;;;9.60;96.32
11347;BME280;5728;42.722;23.258;2024-03-02T02:51:52;94143.34;;;9.93;94.18
11347;BME280;5728;42.722;23.258;2024-03-02T02:54:19;94148.69;;;9.85;93.71
11347;BME280;5728;42.722;23.258;2024-03-02T02:56:47;94158.25;;;9.43;95.48
11347;BME280;5728;42.722;23.258;2024-03-02T02:59:14;94161.78;;;9.39;98.08
11347;BME280;5728;42.722;23.258;2024-03-02T03:01:41;94153.19;;;9.37;97.31
11347;BME280;5728;42.722;23.258;2024-03-02T03:04:08;94152.28;;;9.41;97.59
11347;BME280;5728;42.722;23.258;2024-03-02T03:06:35;94153.84;;;9.06;97.65
11347;BME280;5728;42.722;23.258;2024-03-02T03:09:01;94153.72;;;9.13;98.75
11347;BME280;5728;42.722;23.258;2024-03-02T03:11:29;94154.59;;;9.52;96.85
11347;BME280;5728;42.722;23.258;2024-03-02T03:13:57;94149.09;;;9.69;96.98
11347;BME280;5728;42.722;23.258;2024-03-02T03:16:25;94150.91;;;9.63;95.44
11347;BME280;5728;42.722;23.258;2024-03-02T03:18:52;94152.69;;;9.61;96.11
11347;BME280;5728;42.722;23.258;2024-03-02T03:21:19;94147.34;;;9.69;94.84
11347;BME280;5728;42.722;23.258;2024-03-02T03:23:46;94160.47;;;9.61;94.66
11347;BME280;5728;42.722;23.258;2024-03-02T03:26:13;94154.25;;;9.69;95.93
11347;BME280;5728;42.722;23.258;2024-03-02T03:28:40;94149.84;;;9.72;95.40
11347;BME280;5728;42.722;23.258;2024-03-02T03:31:09;94154.03;;;9.78;95.52
11347;BME280;5728;42.722;23.258;2024-03-02T03:33:36;94149.66;;;9.81;96.13
11347;BME280;5728;42.722;23.258;2024-03-02T03:36:04;94148.75;;;9.82;95.59
11347;BME280;5728;42.722;23.258;2024-03-02T03:38:30;94154.56;;;9.93;95.09
11347;BME280;5728;42.722;23.258;2024-03-02T03:40:57;94145.53;;;9.73;95.05
11347;BME280;5728;42.722;23.258;2024-03-02T03:43:24;94156.22;;;9.57;96.12
11347;BME280;5728;42.722;23.258;2024-03-02T03:45:51;94145.81;;;9.60;95.11
11347;BME280;5728;42.722;23.258;2024-03-02T03:48:20;94149.25;;;9.59;95.18
11347;BME280;5728;42.722;23.258;2024-03-02T03:50:47;94157.13;;;9.56;95.87
11347;BME280;5728;42.722;23.258;2024-03-02T03:53:14;94150.00;;;9.66;96.25
11347;BME280;5728;42.722;23.258;2024-03-02T03:55:41;94154.38;;;9.62;95.49
11347;BME280;5728;42.722;23.258;2024-03-02T03:58:08;94149.78;;;9.77;95.37
11347;BME280;5728;42.722;23.258;2024-03-02T04:00:35;94147.81;;;9.86;94.65
11347;BME280;5728;42.722;23.258;2024-03-02T04:03:02;94145.06;;;9.94;94.42
11347;BME280;5728;42.722;23.258;2024-03-02T04:05:31;94150.44;;;9.85;95.53
11347;BME280;5728;42.722;23.258;2024-03-02T04:07:58;94154.78;;;9.84;95.38
11347;BME280;5728;42.722;23.258;2024-03-02T04:10:26;94149.03;;;9.72;95.44
11347;BME280;5728;42.722;23.258;2024-03-02T04:12:52;94147.94;;;9.80;95.72
11347;BME280;5728;42.722;23.258;2024-03-02T04:15:20;94141.91;;;9.80;95.34
11347;BME280;5728;42.722;23.258;2024-03-02T04:17:48;94148.22;;;9.28;97.03
11347;BME280;5728;42.722;23.258;2024-03-02T04:20:15;94142.41;;;9.58;96.90
11347;BME280;5728;42.722;23.258;2024-03-02T04:22:43;94159.09;;;9.84;95.83
11347;BME280;5728;42.722;23.258;2024-03-02T04:25:10;94144.94;;;9.98;94.74
11347;BME280;5728;42.722;23.258;2024-03-02T04:27:37;94146.53;;;10.04;93.88
11347;BME280;5728;42.722;23.258;2024-03-02T04:30:05;94164.00;;;9.96;94.60
11347;BME280;5728;42.722;23.258;2024-03-02T04:32:33;94143.97;;;10.02;94.61
11347;BME280;5728;42.722;23.258;2024-03-02T04:35:01;94143.22;;;9.97;94.97
11347;BME280;5728;42.722;23.258;2024-03-02T04:37:29;94150.31;;;9.91;94.99
11347;BME280;5728;42.722;23.258;2024-03-02T04:39:57;94153.75;;;9.90;96.41
11347;BME280;5728;42.722;23.258;2024-03-02T04:42:24;94158.53;;;9.70;97.34
11347;BME280;5728;42.722;23.258;2024-03-02T04:44:51;94160.94;;;9.79;97.11
11347;BME280;5728;42.722;23.258;2024-03-02T04:47:18;94147.78;;;9.88;96.76
11347;BME280;5728;42.722;23.258;2024-03-02T04:49:45;94159.03;;;9.87;96.27
11347;BME280;5728;42.722;23.258;2024-03-02T04:52:12;94159.34;;;9.73;96.54
11347;BME280;5728;42.722;23.258;2024-03-02T04:54:39;94169.25;;;9.53;97.52
11347;BME280;5728;42.722;23.258;2024-03-02T04:57:21;94162.63;;;9.80;96.92
11347;BME280;5728;42.722;23.258;2024-03-02T04:59:48;94173.31;;;9.64;97.33
11347;BME280;5728;42.722;23.258;2024-03-02T05:02:15;94157.78;;;9.66;98.10
11347;BME280;5728;42.722;23.258;2024-03-02T05:04:42;94164.47;;;9.75;96.58
11347;BME280;5728;42.722;23.258;2024-03-02T05:07:09;94166.72;;;9.51;97.34
11347;BME280;5728;42.722;23.258;2024-03-02T05:09:36;94168.53;;;9.86;96.90
11347;BME280;5728;42.722;23.258;2024-03-02T05:12:03;94164.34;;;9.81;96.53
11347;BME280;5728;42.722;23.258;2024-03-02T05:14:56;94168.66;;;9.80;96.35
11347;BME280;5728;42.722;23.258;2024-03-02T05:17:23;94175.69;;;9.75;96.96
11347;BME280;5728;42.722;23.258;2024-03-02T05:19:49;94179.34;;;9.67;96.79
11347;BME280;5728;42.722;23.258;2024-03-02T05:22:16;94181.84;;;9.70;96.91
11347;BME280;5728;42.722;23.258;2024-03-02T05:24:43;94181.78;;;9.73;97.16
11347;BME280;5728;42.722;23.258;2024-03-02T05:27:10;94181.66;;;9.79;97.36
11347;BME280;5728;42.722;23.258;2024-03-02T05:29:37;94185.00;;;9.82;96.21
11347;BME280;5728;42.722;23.258;2024-03-02T05:32:06;94185.72;;;9.50;97.79
11347;BME280;5728;42.722;23.258;2024-03-02T05:34:33;94186.50;;;9.54;96.72
11347;BME280;5728;42.722;23.258;2024-03-02T05:37:00;94188.59;;;9.35;99.46
11347;BME280;5728;42.722;23.258;2024-03-02T05:39:27;94198.31;;;9.24;100.00
11347;BME280;5728;42.722;23.258;2024-03-02T05:41:54;94199.50;;;9.51;100.00
11347;BME280;5728;42.722;23.258;2024-03-02T05:44:21;94203.03;;;9.47;100.00
11347;BME280;5728;42.722;23.258;2024-03-02T05:46:48;94204.78;;;9.46;100.00
11347;BME280;5728;42.722;23.258;2024-03-02T05:49:17;94203.91;;;9.46;100.00
11347;BME280;5728;42.722;23.258;2024-03-02T05:51:44;94201.53;;;9.35;100.00
11347;BME280;5728;42.722;23.258;2024-03-02T05:54:12;94199.59;;;9.46;100.00
11347;BME280;5728;42.722;23.258;2024-03-02T05:56:39;94202.75;;;9.60;100.00
11347;BME280;5728;42.722;23.258;2024-03-02T05:59:06;94204.41;;;9.63;100.00
11347;BME280;5728;42.722;23.258;2024-03-02T06:01:39;94211.16;;;9.72;100.00
11347;BME280;5728;42.722;23.258;2024-03-02T06:04:06;94209.06;;;9.47;100.00
11347;BME280;5728;42.722;23.258;2024-03-02T06:06:34;94207.94;;;9.60;100.00
11347;BME280;5728;42.722;23.258;2024-03-02T06:09:02;94214.44;;;9.78;100.00
11347;BME280;5728;42.722;23.258;2024-03-02T06:11:31;94213.50;;;9.82;100.00
11347;BME280;5728;42.722;23.258;2024-03-02T06:13:57;94214.22;;;9.89;99.54
11347;BME280;5728;42.722;23.258;2024-03-02T06:16:24;94205.97;;;9.72;100.00
11347;BME280;5728;42.722;23.258;2024-03-02T06:18:51;94206.47;;;9.87;100.00
11347;BME280;5728;42.722;23.258;2024-03-02T06:21:19;94213.31;;;9.90;100.00
11347;BME280;5728;42.722;23.258;2024-03-02T06:23:47;94213.25;;;9.93;100.00
11347;BME280;5728;42.722;23.258;2024-03-02T06:26:14;94221.13;;;9.88;100.00
11347;BME280;5728;42.722;23.258;2024-03-02T06:28:41;94220.16;;;9.92;100.00
11347;BME280;5728;42.722;23.258;2024-03-02T06:31:09;94212.34;;;9.55;100.00
11347;BME280;5728;42.722;23.258;2024-03-02T06:33:36;94214.88;;;9.58;100.00
11347;BME280;5728;42.722;23.258;2024-03-02T06:36:04;94221.13;;;9.47;100.00
11347;BME280;5728;42.722;23.258;2024-03-02T06:38:34;94216.88;;;9.46;100.00
11347;BME280;5728;42.722;23.258;2024-03-02T06:41:02;94219.81;;;9.28;100.00
11347;BME280;5728;42.722;23.258;2024-03-02T06:43:29;94222.88;;;9.02;100.00
11347;BME280;5728;42.722;23.258;2024-03-02T06:45:56;94216.97;;;9.41;100.00
11347;BME280;5728;42.722;23.258;2024-03-02T06:48:23;94228.47;;;9.25;100.00
11347;BME280;5728;42.722;23.258;2024-03-02T06:50:50;94225.69;;;9.34;100.00
11347;BME280;5728;42.722;23.258;2024-03-02T06:53:17;94228.22;;;8.93;100.00
11347;BME280;5728;42.722;23.258;2024-03-02T06:55:45;94228.31;;;8.87;100.00
11347;BME280;5728;42.722;23.258;2024-03-02T06:58:14;94230.78;;;8.94;100.00
11347;BME280;5728;42.722;23.258;2024-03-02T07:00:41;94235.25;;;8.85;100.00
11347;BME280;5728;42.722;23.258;2024-03-02T07:03:09;94233.50;;;8.87;100.00
11347;BME280;5728;42.722;23.258;2024-03-02T07:05:36;94235.47;;;8.71;100.00
11347;BME280;5728;42.722;23.258;2024-03-02T07:08:04;94236.81;;;8.95;100.00
11347;BME280;5728;42.722;23.258;2024-03-02T07:10:31;94240.38;;;8.88;100.00
11347;BME280;5728;42.722;23.258;2024-03-02T07:12:58;94244.47;;;9.01;100.00
11347;BME280;5728;42.722;23.258;2024-03-02T07:15:27;94240.47;;;9.29;100.00
11347;BME280;5728;42.722;23.258;2024-03-02T07:18:12;94257.84;;;9.23;100.00
11347;BME280;5728;42.722;23.258;2024-03-02T07:20:39;94241.41;;;9.25;100.00
11347;BME280;5728;42.722;23.258;2024-03-02T07:23:06;94244.66;;;9.36;100.00
11347;BME280;5728;42.722;23.258;2024-03-02T07:25:34;94243.13;;;9.26;100.00
11347;BME280;5728;42.722;23.258;2024-03-02T07:28:01;94246.75;;;9.16;100.00
11347;BME280;5728;42.722;23.258;2024-03-02T07:30:31;94241.13;;;9.40;100.00
11347;BME280;5728;42.722;23.258;2024-03-02T07:32:58;94246.38;;;9.36;100.00
11347;BME280;5728;42.722;23.258;2024-03-02T07:35:25;94241.00;;;9.46;100.00
11347;BME280;5728;42.722;23.258;2024-03-02T07:37:53;94243.34;;;9.58;100.00
11347;BME280;5728;42.722;23.258;2024-03-02T07:40:20;94245.03;;;9.15;100.00
11347;BME280;5728;42.722;23.258;2024-03-02T07:42:48;94249.69;;;9.42;100.00
11347;BME280;5728;42.722;23.258;2024-03-02T07:45:15;94254.09;;;9.39;100.00
11347;BME280;5728;42.722;23.258;2024-03-02T07:47:44;94253.19;;;9.41;100.00
11347;BME280;5728;42.722;23.258;2024-03-02T07:50:11;94251.22;;;9.52;100.00
11347;BME280;5728;42.722;23.258;2024-03-02T07:52:38;94258.59;;;9.28;100.00
11347;BME280;5728;42.722;23.258;2024-03-02T07:55:05;94259.56;;;9.24;100.00
11347;BME280;5728;42.722;23.258;2024-03-02T07:57:32;94256.03;;;9.28;100.00
11347;BME280;5728;42.722;23.258;2024-03-02T07:59:59;94249.41;;;9.12;100.00
11347;BME280;5728;42.722;23.258;2024-03-02T08:02:26;94265.56;;;9.24;100.00
11347;BME280;5728;42.722;23.258;2024-03-02T08:04:54;94263.19;;;9.14;100.00
11347;BME280;5728;42.722;23.258;2024-03-02T08:07:23;94260.19;;;9.35;100.00
11347;BME280;5728;42.722;23.258;2024-03-02T08:09:50;94259.88;;;9.51;100.00
11347;BME280;5728;42.722;23.258;2024-03-02T08:12:17;94273.78;;;9.44;100.00
11347;BME280;5728;42.722;23.258;2024-03-02T08:14:45;94270.72;;;9.26;100.00
11347;BME280;5728;42.722;23.258;2024-03-02T08:17:12;94265.41;;;9.33;100.00
11347;BME280;5728;42.722;23.258;2024-03-02T08:19:39;94274.13;;;9.28;100.00
11347;BME280;5728;42.722;23.258;2024-03-02T08:22:07;94270.09;;;9.12;100.00
11347;BME280;5728;42.722;23.258;2024-03-02T08:24:34;94265.31;;;8.90;100.00
11347;BME280;5728;42.722;23.258;2024-03-02T08:27:02;94266.19;;;8.91;100.00
11347;BME280;5728;42.722;23.258;2024-03-02T08:29:29;94258.06;;;9.11;100.00
11347;BME280;5728;42.722;23.258;2024-03-02T08:31:56;94263.25;;;9.11;100.00
11347;BME280;5728;42.722;23.258;2024-03-02T08:34:23;94259.56;;;9.24;100.00
11347;BME280;5728;42.722;23.258;2024-03-02T08:36:50;94258.66;;;9.26;100.00
11347;BME280;5728;42.722;23.258;2024-03-02T08:39:18;94267.81;;;9.44;100.00
11347;BME280;5728;42.722;23.258;2024-03-02T08:41:46;94266.59;;;9.61;100.00
11347;BME280;5728;42.722;23.258;2024-03-02T08:44:14;94265.63;;;9.21;100.00
11347;BME280;5728;42.722;23.258;2024-03-02T08:46:41;94262.53;;;9.47;100.00
11347;BME280;5728;42.722;23.258;2024-03-02T08:49:08;94264.63;;;9.73;100.00
11347;BME280;5728;42.722;23.258;2024-03-02T08:51:35;94261.22;;;9.71;100.00
11347;BME280;5728;42.722;23.258;2024-03-02T08:54:02;94266.81;;;9.49;100.00
11347;BME280;5728;42.722;23.258;2024-03-02T08:56:31;94264.81;;;9.63;100.00
11347;BME280;5728;42.722;23.258;2024-03-02T08:58:59;94268.41;;;9.98;100.00
11347;BME280;5728;42.722;23.258;2024-03-02T09:01:26;94270.69;;;10.13;100.00
11347;BME280;5728;42.722;23.258;2024-03-02T09:03:53;94271.31;;;9.83;100.00
11347;BME280;5728;42.722;23.258;2024-03-02T09:06:20;94270.69;;;9.72;100.00
11347;BME280;5728;42.722;23.258;2024-03-02T09:08:47;94274.53;;;9.94;100.00
11347;BME280;5728;42.722;23.258;2024-03-02T09:11:15;94261.13;;;10.16;100.00
11347;BME280;5728;42.722;23.258;2024-03-02T09:13:44;94278.59;;;10.47;99.40
11347;BME280;5728;42.722;23.258;2024-03-02T09:16:11;94281.53;;;10.30;100.00
11347;BME280;5728;42.722;23.258;2024-03-02T09:18:38;94282.00;;;10.49;99.65
11347;BME280;5728;42.722;23.258;2024-03-02T09:21:05;94293.41;;;10.40;99.79
11347;BME280;5728;42.722;23.258;2024-03-02T09:23:33;94284.03;;;10.71;99.92
11347;BME280;5728;42.722;23.258;2024-03-02T09:26:00;94288.41;;;10.69;99.67
11347;BME280;5728;42.722;23.258;2024-03-02T09:28:28;94284.56;;;10.85;98.46
11347;BME280;5728;42.722;23.258;2024-03-02T09:30:57;94295.22;;;10.73;97.96
11347;BME280;5728;42.722;23.258;2024-03-02T09:33:24;94287.25;;;10.81;97.88
11347;BME280;5728;42.722;23.258;2024-03-02T09:35:50;94293.88;;;10.93;96.79
11347;BME280;5728;42.722;23.258;2024-03-02T09:38:17;94282.91;;;11.17;95.11
11347;BME280;5728;42.722;23.258;2024-03-02T09:40:44;94289.84;;;11.16;95.66
11347;BME280;5728;42.722;23.258;2024-03-02T09:43:15;94287.69;;;11.00;96.61
11347;BME280;5728;42.722;23.258;2024-03-02T09:45:43;94287.28;;;11.15;95.56
11347;BME280;5728;42.722;23.258;2024-03-02T09:48:12;94294.16;;;11.16;95.50
11347;BME280;5728;42.722;23.258;2024-03-02T09:50:39;94287.19;;;11.18;95.06
11347;BME280;5728;42.722;23.258;2024-03-02T09:53:07;94290.47;;;10.92;93.96
11347;BME280;5728;42.722;23.258;2024-03-02T09:55:35;94296.84;;;10.77;96.14
11347;BME280;5728;42.722;23.258;2024-03-02T09:58:03;94304.78;;;11.07;95.88
11347;BME280;5728;42.722;23.258;2024-03-02T10:00:30;94288.56;;;11.32;94.38
11347;BME280;5728;42.722;23.258;2024-03-02T10:02:57;94287.78;;;11.29;94.23
11347;BME280;5728;42.722;23.258;2024-03-02T10:05:26;94294.31;;;11.43;94.92
11347;BME280;5728;42.722;23.258;2024-03-02T10:08:00;94285.16;;;11.63;95.01
11347;BME280;5728;42.722;23.258;2024-03-02T10:10:35;94278.59;;;11.48;94.44
11347;BME280;5728;42.722;23.258;2024-03-02T10:13:06;94288.38;;;11.38;94.96
11347;BME280;5728;42.722;23.258;2024-03-02T10:15:34;94290.13;;;11.38;94.56
11347;BME280;5728;42.722;23.258;2024-03-02T10:18:03;94280.47;;;11.43;94.53
11347;BME280;5728;42.722;23.258;2024-03-02T10:20:31;94285.88;;;11.35;95.08
11347;BME280;5728;42.722;23.258;2024-03-02T10:23:14;94277.53;;;11.24;95.65
11347;BME280;5728;42.722;23.258;2024-03-02T10:25:43;94290.31;;;11.32;95.58
11347;BME280;5728;42.722;23.258;2024-03-02T10:28:10;94285.50;;;11.17;96.00
11347;BME280;5728;42.722;23.258;2024-03-02T10:30:37;94283.72;;;11.19;96.90
11347;BME280;5728;42.722;23.258;2024-03-02T10:33:06;94291.78;;;11.42;95.85
11347;BME280;5728;42.722;23.258;2024-03-02T10:35:35;94276.63;;;11.25;95.36
11347;BME280;5728;42.722;23.258;2024-03-02T10:38:04;94268.53;;;11.04;97.03
11347;BME280;5728;42.722;23.258;2024-03-02T10:40:31;94277.47;;;11.27;96.55
11347;BME280;5728;42.722;23.258;2024-03-02T10:42:59;94279.84;;;11.35;96.10
11347;BME280;5728;42.722;23.258;2024-03-02T10:45:30;94281.47;;;11.39;95.57
11347;BME280;5728;42.722;23.258;2024-03-02T10:47:58;94276.41;;;11.33;96.14
11347;BME280;5728;42.722;23.258;2024-03-02T10:50:25;94279.94;;;11.30;96.66
11347;BME280;5728;42.722;23.258;2024-03-02T10:52:53;94284.19;;;11.34;96.33
11347;BME280;5728;42.722;23.258;2024-03-02T10:55:20;94274.34;;;11.45;95.79
11347;BME280;5728;42.722;23.258;2024-03-02T10:57:51;94269.69;;;11.26;96.11
11347;BME280;5728;42.722;23.258;2024-03-02T11:00:20;94269.28;;;11.41;96.67
11347;BME280;5728;42.722;23.258;2024-03-02T11:02:52;94269.50;;;11.33;97.65
11347;BME280;5728;42.722;23.258;2024-03-02T11:05:28;94273.75;;;11.68;97.30
11347;BME280;5728;42.722;23.258;2024-03-02T11:08:01;94278.75;;;11.43;96.17
11347;BME280;5728;42.722;23.258;2024-03-02T11:10:34;94266.66;;;11.42;96.44
11347;BME280;5728;42.722;23.258;2024-03-02T11:13:05;94260.78;;;11.36;96.49
11347;BME280;5728;42.722;23.258;2024-03-02T11:15:34;94271.41;;;11.27;97.85
11347;BME280;5728;42.722;23.258;2024-03-02T11:18:03;94265.47;;;11.54;97.25
11347;BME280;5728;42.722;23.258;2024-03-02T11:20:36;94264.28;;;11.66;95.17
11347;BME280;5728;42.722;23.258;2024-03-02T11:23:09;94257.63;;;11.55;95.69
11347;BME280;5728;42.722;23.258;2024-03-02T11:25:36;94251.63;;;11.55;95.05
11347;BME280;5728;42.722;23.258;2024-03-02T11:28:05;94255.94;;;11.54;94.67
11347;BME280;5728;42.722;23.258;2024-03-02T11:30:52;94257.00;;;11.80;93.84
11347;BME280;5728;42.722;23.258;2024-03-02T11:33:26;94250.31;;;11.39;93.53
11347;BME280;5728;42.722;23.258;2024-03-02T11:35:55;94258.03;;;11.10;96.45
11347;BME280;5728;42.722;23.258;2024-03-02T11:38:27;94257.03;;;10.80;98.14
11347;BME280;5728;42.722;23.258;2024-03-02T11:40:54;94254.59;;;11.08;97.88
11347;BME280;5728;42.722;23.258;2024-03-02T11:43:22;94255.63;;;11.34;96.53
11347;BME280;5728;42.722;23.258;2024-03-02T11:45:56;94249.44;;;11.38;95.17
11347;BME280;5728;42.722;23.258;2024-03-02T11:48:24;94253.03;;;11.01;94.99
11347;BME280;5728;42.722;23.258;2024-03-02T11:50:52;94253.63;;;11.12;96.31
11347;BME280;5728;42.722;23.258;2024-03-02T11:53:20;94254.69;;;11.05;97.39
11347;BME280;5728;42.722;23.258;2024-03-02T11:55:49;94243.50;;;11.35;96.28
11347;BME280;5728;42.722;23.258;2024-03-02T11:58:17;94262.84;;;11.23;94.54
11347;BME280;5728;42.722;23.258;2024-03-02T12:00:46;94258.91;;;11.09;95.96
11347;BME280;5728;42.722;23.258;2024-03-02T12:03:13;94247.06;;;10.99;94.59
11347;BME280;5728;42.722;23.258;2024-03-02T12:05:42;94249.94;;;11.20;94.78
11347;BME280;5728;42.722;23.258;2024-03-02T12:08:11;94258.56;;;11.53;93.71
11347;BME280;5728;42.722;23.258;2024-03-02T12:10:40;94241.75;;;11.35;93.22
11347;BME280;5728;42.722;23.258;2024-03-02T12:13:10;94248.94;;;11.26;94.35
11347;BME280;5728;42.722;23.258;2024-03-02T12:15:38;94267.41;;;11.46;95.17
11347;BME280;5728;42.722;23.258;2024-03-02T12:18:06;94244.63;;;11.57;94.21
11347;BME280;5728;42.722;23.258;2024-03-02T12:20:34;94247.63;;;11.74;92.23
11347;BME280;5728;42.722;23.258;2024-03-02T12:23:02;94250.16;;;11.45;93.39
11347;BME280;5728;42.722;23.258;2024-03-02T12:25:31;94249.16;;;11.49;94.18
11347;BME280;5728;42.722;23.258;2024-03-02T12:28:01;94251.63;;;11.55;93.79
11347;BME280;5728;42.722;23.258;2024-03-02T12:30:32;94251.63;;;11.55;93.51
11347;BME280;5728;42.722;23.258;2024-03-02T12:33:02;94251.41;;;11.61;93.84
11347;BME280;5728;42.722;23.258;2024-03-02T12:35:29;94255.91;;;11.56;93.71
11347;BME280;5728;42.722;23.258;2024-03-02T12:37:57;94245.19;;;11.68;93.14
11347;BME280;5728;42.722;23.258;2024-03-02T12:40:25;94243.97;;;11.81;92.66
11347;BME280;5728;42.722;23.258;2024-03-02T12:42:53;94236.84;;;11.55;93.20
11347;BME280;5728;42.722;23.258;2024-03-02T12:45:20;94244.78;;;11.51;93.42
11347;BME280;5728;42.722;23.258;2024-03-02T12:47:50;94255.16;;;11.51;93.49
11347;BME280;5728;42.722;23.258;2024-03-02T12:50:18;94254.06;;;11.60;94.09
11347;BME280;5728;42.722;23.258;2024-03-02T12:52:51;94260.03;;;11.63;93.62
11347;BME280;5728;42.722;23.258;2024-03-02T12:55:20;94243.50;;;11.35;93.81
11347;BME280;5728;42.722;23.258;2024-03-02T12:57:47;94267.38;;;11.15;94.53
11347;BME280;5728;42.722;23.258;2024-03-02T13:00:18;94254.75;;;11.02;95.32
11347;BME280;5728;42.722;23.258;2024-03-02T13:02:47;94260.13;;;11.28;95.20
11347;BME280;5728;42.722;23.258;2024-03-02T13:05:17;94257.91;;;11.46;94.07
11347;BME280;5728;42.722;23.258;2024-03-02T13:07:46;94263.94;;;11.47;93.48
11347;BME280;5728;42.722;23.258;2024-03-02T13:10:14;94260.84;;;11.33;94.22